This is the latest recevied weather packets stored in our database for station/object SV2LPQ-2. If no packets are shown the sender has not sent any weather packets the latest 10 day(s).
| Time | Temp. | Humidity | Pressure | Rain* | Wind** | Luminosity | Snow |
|---|---|---|---|---|---|---|---|
| 1777772755 | 8.33° C | 76% | 1042.5 hPa | 0 mm | - | - | - |
| 1777772255 | 8.33° C | 77% | 1042.5 hPa | 0 mm | - | - | - |
| 1777771755 | 7.78° C | 78% | 1042.5 hPa | 0 mm | - | - | - |
| 1777771255 | 7.22° C | 79% | 1042.5 hPa | 0 mm | - | - | - |
| 1777770755 | 7.78° C | 78% | 1042.5 hPa | 0 mm | - | - | - |
| 1777770255 | 7.78° C | 76% | 1042.5 hPa | 0 mm | - | - | - |
| 1777769755 | 8.33° C | 75% | 1042.5 hPa | 0 mm | - | - | - |
| 1777769255 | 7.78° C | 76% | 1042.5 hPa | 0 mm | - | - | - |
| 1777768755 | 8.33° C | 74% | 1042.5 hPa | 0 mm | - | - | - |
| 1777768255 | 8.89° C | 72% | 1042.5 hPa | 0 mm | - | - | - |
| 1777767756 | 8.89° C | 71% | 1042.5 hPa | 0 mm | - | - | - |
| 1777767255 | 9.44° C | 70% | 1042.5 hPa | 0 mm | - | - | - |
| 1777766755 | 10° C | 68% | 1042.5 hPa | 0 mm | - | - | - |
| 1777766256 | 9.44° C | 72% | 1042.5 hPa | 0 mm | - | - | - |
| 1777765756 | 9.44° C | 71% | 1042.5 hPa | 0 mm | - | - | - |
| 1777765255 | 10° C | 70% | 1042.5 hPa | 0 mm | - | - | - |
| 1777764756 | 10° C | 67% | 1042.5 hPa | 0 mm | - | - | - |
| 1777764255 | 10.56° C | 67% | 1042.5 hPa | 0 mm | - | - | - |
| 1777763755 | 10° C | 70% | 1042.5 hPa | 0 mm | - | - | - |
| 1777763256 | 10° C | 72% | 1042.5 hPa | 0 mm | - | - | - |
| 1777762755 | 9.44° C | 73% | 1042.5 hPa | 0 mm | - | - | - |
| 1777762255 | 9.44° C | 74% | 1042.5 hPa | 0 mm | - | - | - |
| 1777761756 | 10° C | 74% | 1042.5 hPa | 0 mm | - | - | - |
| 1777761255 | 10° C | 72% | 1042.5 hPa | 0 mm | - | - | - |
| 1777760755 | 10.56° C | 70% | 1042.5 hPa | 0 mm | - | - | - |
* Rain latest hour (hover to see other rain measurements)
** Current wind speed in m/s (hover to see current wind gust speed)